Time;durP1;ratioP1;P1;durP2;ratioP2;P2;SDS_P1;SDS_P2;PMS_P1;PMS_P2;Temp;Humidity;BMP_temperature;BMP_pressure;BME280_temperature;BME280_humidity;BME280_pressure;Samples;Min_cycle;Max_cycle;Signal;HPM_P1;HPM_P2
2022/01/15 00:00:59;;;;;;;5.37;3.37;;;;;;;;;;4960993;28;20210;-72
2022/01/15 00:03:24;;;;;;;7.47;4.13;;;;;;;;;;4962323;28;20201;-72
2022/01/15 00:05:49;;;;;;;4.60;2.97;;;;;;;;;;4948695;28;20239;-72
2022/01/15 00:08:14;;;;;;;3.47;2.50;;;;;;;;;;4957459;28;20169;-72
2022/01/15 00:10:40;;;;;;;4.00;3.17;;;;;;;;;;4944529;28;20182;-72
2022/01/15 00:13:10;;;;;;;4.57;2.80;;;;;;;;;;4966344;28;20205;-72
2022/01/15 00:15:40;;;;;;;3.10;2.47;;;;;;;;;;4943739;28;20193;-72
2022/01/15 00:18:11;;;;;;;4.13;2.27;;;;;;;;;;4975223;28;20181;-72
2022/01/15 00:20:36;;;;;;;2.57;2.27;;;;;;;;;;4967853;28;20228;-72
2022/01/15 00:23:02;;;;;;;3.73;2.30;;;;;;;;;;4950670;28;20182;-72
2022/01/15 00:25:29;;;;;;;3.10;2.20;;;;;;;;;;4955088;28;20296;-72
2022/01/15 00:27:54;;;;;;;3.60;2.40;;;;;;;;;;4953330;28;20188;-72
2022/01/15 00:30:20;;;;;;;3.20;2.23;;;;;;;;;;4954018;28;20200;-72
2022/01/15 00:32:46;;;;;;;4.60;2.60;;;;;;;;;;4950991;28;20276;-72
2022/01/15 00:35:13;;;;;;;3.27;2.13;;;;;;;;;;4951084;28;20291;-72
2022/01/15 00:37:39;;;;;;;3.40;2.37;;;;;;;;;;4951955;29;20181;-72
2022/01/15 00:40:05;;;;;;;3.13;2.63;;;;;;;;;;4956986;28;20264;-72
2022/01/15 00:42:32;;;;;;;3.67;2.50;;;;;;;;;;4961772;28;20188;-72
2022/01/15 00:44:59;;;;;;;2.77;2.30;;;;;;;;;;4947558;28;20232;-72
2022/01/15 00:47:28;;;;;;;2.40;2.20;;;;;;;;;;4950442;29;20186;-72
2022/01/15 00:49:53;;;;;;;3.60;2.70;;;;;;;;;;4966685;28;20177;-72
2022/01/15 00:52:19;;;;;;;4.03;2.30;;;;;;;;;;4948322;28;20185;-72
2022/01/15 00:54:44;;;;;;;5.57;2.80;;;;;;;;;;4964021;28;20186;-72
2022/01/15 00:57:09;;;;;;;4.53;2.97;;;;;;;;;;4959102;28;20277;-72
2022/01/15 00:59:34;;;;;;;9.23;2.50;;;;;;;;;;4966315;28;20186;-72
2022/01/15 01:01:59;;;;;;;3.03;2.30;;;;;;;;;;4952334;28;20212;-72
2022/01/15 01:04:24;;;;;;;2.73;2.33;;;;;;;;;;4970670;28;20213;-73
2022/01/15 01:06:50;;;;;;;3.27;2.53;;;;;;;;;;4953189;28;20181;-72
2022/01/15 01:09:15;;;;;;;3.77;2.63;;;;;;;;;;4956229;28;20244;-72
2022/01/15 01:11:47;;;;;;;6.30;2.60;;;;;;;;;;4950273;28;20189;-72
2022/01/15 01:24:43;;;;;;;3.87;2.43;;;;;;;;;;4948458;28;20212;-72
2022/01/15 01:27:16;;;;;;;2.83;2.50;;;;;;;;;;4954050;28;20189;-72
2022/01/15 01:32:36;;;;;;;3.83;2.77;;;;;;;;;;4949220;28;20186;-72
2022/01/15 01:35:05;;;;;;;3.47;3.07;;;;;;;;;;4961343;28;20494;-72
2022/01/15 01:37:37;;;;;;;4.37;2.27;;;;;;;;;;4953200;28;20181;-72
2022/01/15 01:40:20;;;;;;;3.90;3.00;;;;;;;;;;4953374;28;20181;-73
2022/01/15 01:42:57;;;;;;;4.70;2.30;;;;;;;;;;4955223;28;20186;-72
2022/01/15 01:45:22;;;;;;;5.30;3.27;;;;;;;;;;4951788;28;20217;-73
2022/01/15 01:47:47;;;;;;;4.63;3.10;;;;;;;;;;4957300;28;20268;-72
2022/01/15 01:50:14;;;;;;;3.93;2.73;;;;;;;;;;4950398;28;20330;-72
2022/01/15 01:52:40;;;;;;;4.70;2.93;;;;;;;;;;4956092;28;20590;-72
2022/01/15 01:55:06;;;;;;;3.40;2.60;;;;;;;;;;4950269;28;20188;-72
2022/01/15 01:57:32;;;;;;;3.80;2.70;;;;;;;;;;4952667;28;20181;-73
2022/01/15 01:59:57;;;;;;;5.27;3.57;;;;;;;;;;4965183;28;20182;-72
2022/01/15 02:02:22;;;;;;;4.80;3.73;;;;;;;;;;4951506;28;20181;-72
2022/01/15 02:04:47;;;;;;;4.47;3.17;;;;;;;;;;4949111;28;20236;-72
2022/01/15 02:07:13;;;;;;;6.60;3.43;;;;;;;;;;4948644;28;20186;-72
2022/01/15 02:09:42;;;;;;;5.33;3.73;;;;;;;;;;4946584;28;20245;-72
2022/01/15 02:12:07;;;;;;;5.00;3.23;;;;;;;;;;4951773;28;20228;-72
2022/01/15 02:14:32;;;;;;;5.00;3.40;;;;;;;;;;4949664;28;20188;-72
2022/01/15 02:16:58;;;;;;;4.83;3.43;;;;;;;;;;4970570;28;20192;-72
2022/01/15 02:19:33;;;;;;;6.13;3.60;;;;;;;;;;4953518;28;20188;-73
2022/01/15 02:24:42;;;;;;;4.77;3.60;;;;;;;;;;4958084;28;20266;-72
2022/01/15 02:27:07;;;;;;;4.60;3.77;;;;;;;;;;4951189;28;20181;-73
2022/01/15 02:29:32;;;;;;;6.77;4.37;;;;;;;;;;4947346;28;20178;-72
2022/01/15 02:31:58;;;;;;;8.30;4.80;;;;;;;;;;4951286;28;20180;-73
2022/01/15 02:34:23;;;;;;;5.10;4.07;;;;;;;;;;4946451;28;20296;-72
2022/01/15 02:36:48;;;;;;;5.00;3.67;;;;;;;;;;4950325;28;20189;-73
2022/01/15 02:39:13;;;;;;;5.43;4.03;;;;;;;;;;4964901;28;20185;-72
2022/01/15 02:41:39;;;;;;;5.70;4.23;;;;;;;;;;4955647;28;20179;-73
2022/01/15 02:44:05;;;;;;;7.80;5.13;;;;;;;;;;4944878;28;20244;-72
2022/01/15 02:48:57;;;;;;;5.87;4.20;;;;;;;;;;4947455;28;20208;-72
2022/01/15 02:51:24;;;;;;;5.13;4.27;;;;;;;;;;4955736;28;20216;-73
2022/01/15 02:53:54;;;;;;;4.80;4.30;;;;;;;;;;4949603;28;20236;-73
2022/01/15 02:56:20;;;;;;;7.97;5.57;;;;;;;;;;4946405;28;20173;-72
2022/01/15 02:58:46;;;;;;;7.83;5.10;;;;;;;;;;4944356;28;20208;-73
2022/01/15 03:01:11;;;;;;;5.50;4.60;;;;;;;;;;4946345;28;20181;-73
2022/01/15 03:03:36;;;;;;;8.03;5.13;;;;;;;;;;4947805;28;20233;-73
2022/01/15 03:06:02;;;;;;;8.43;5.87;;;;;;;;;;4964080;28;20205;-73
2022/01/15 03:08:28;;;;;;;6.90;5.43;;;;;;;;;;4943788;28;20174;-73
2022/01/15 03:10:53;;;;;;;7.70;4.90;;;;;;;;;;4944355;28;20244;-73
2022/01/15 03:13:19;;;;;;;8.05;4.90;;;;;;;;;;4944219;28;20177;-73
2022/01/15 03:15:44;;;;;;;9.20;5.80;;;;;;;;;;4956242;28;20197;-72
2022/01/15 03:18:09;;;;;;;8.40;5.60;;;;;;;;;;4956935;28;20195;-73
2022/01/15 03:20:34;;;;;;;7.70;5.67;;;;;;;;;;4950950;28;20237;-73
2022/01/15 03:23:02;;;;;;;9.97;6.13;;;;;;;;;;4936719;28;20185;-73
2022/01/15 03:25:28;;;;;;;7.70;6.20;;;;;;;;;;4964219;28;20264;-73
2022/01/15 03:27:54;;;;;;;9.17;5.87;;;;;;;;;;4941972;28;20189;-73
2022/01/15 03:30:19;;;;;;;8.07;6.33;;;;;;;;;;4946603;28;20204;-73
2022/01/15 03:32:45;;;;;;;9.17;6.67;;;;;;;;;;4961782;28;20277;-73
2022/01/15 03:35:12;;;;;;;10.70;7.63;;;;;;;;;;4955407;28;20188;-72
2022/01/15 03:37:37;;;;;;;15.47;7.30;;;;;;;;;;4940773;28;20317;-73
2022/01/15 03:40:03;;;;;;;9.93;6.73;;;;;;;;;;4963474;28;20284;-73
2022/01/15 03:42:28;;;;;;;10.00;6.63;;;;;;;;;;4949426;28;20185;-73
2022/01/15 03:44:53;;;;;;;10.03;6.87;;;;;;;;;;4951793;28;20205;-73
2022/01/15 03:47:18;;;;;;;6.63;5.33;;;;;;;;;;4957004;28;20187;-73
2022/01/15 03:49:44;;;;;;;8.50;6.20;;;;;;;;;;4964624;28;20177;-73
2022/01/15 03:52:10;;;;;;;9.00;6.97;;;;;;;;;;4960952;28;20172;-73
2022/01/15 03:54:35;;;;;;;11.27;8.23;;;;;;;;;;4954795;28;20185;-73
2022/01/15 03:57:01;;;;;;;10.20;6.87;;;;;;;;;;4960363;28;20192;-73
2022/01/15 03:59:26;;;;;;;9.97;8.60;;;;;;;;;;4946879;28;20182;-73
2022/01/15 04:01:51;;;;;;;12.93;9.00;;;;;;;;;;4942819;28;20220;-72
2022/01/15 04:04:17;;;;;;;10.20;7.60;;;;;;;;;;4950015;28;20201;-73
2022/01/15 04:06:42;;;;;;;9.27;7.13;;;;;;;;;;4943493;28;20190;-73
2022/01/15 04:09:08;;;;;;;11.13;7.13;;;;;;;;;;4952330;28;20182;-73
2022/01/15 04:11:34;;;;;;;11.10;7.33;;;;;;;;;;4948714;28;20404;-73
2022/01/15 04:13:59;;;;;;;10.23;7.37;;;;;;;;;;4956358;28;20272;-73
2022/01/15 04:16:24;;;;;;;11.83;8.10;;;;;;;;;;4950803;28;20273;-73
2022/01/15 04:18:50;;;;;;;10.63;7.73;;;;;;;;;;4979732;28;20177;-73
2022/01/15 04:21:15;;;;;;;10.65;6.53;;;;;;;;;;4946735;28;20233;-72
2022/01/15 04:23:40;;;;;;;10.63;8.33;;;;;;;;;;4946868;28;20184;-73
2022/01/15 04:26:05;;;;;;;10.67;8.17;;;;;;;;;;4965369;28;20197;-72
2022/01/15 04:28:33;;;;;;;11.53;8.27;;;;;;;;;;4941278;28;20237;-72
2022/01/15 04:31:04;;;;;;;13.00;8.43;;;;;;;;;;4953661;28;20190;-73
2022/01/15 04:33:30;;;;;;;10.97;7.73;;;;;;;;;;4954331;28;20212;-73
2022/01/15 04:35:55;;;;;;;11.43;9.33;;;;;;;;;;4948552;28;20189;-72
2022/01/15 04:38:20;;;;;;;14.13;10.90;;;;;;;;;;4947267;28;20231;-73
2022/01/15 04:40:45;;;;;;;13.53;10.37;;;;;;;;;;4956760;28;20185;-73
2022/01/15 04:43:10;;;;;;;13.00;9.70;;;;;;;;;;4957669;28;20187;-73
2022/01/15 04:45:36;;;;;;;14.57;10.20;;;;;;;;;;4972543;28;20234;-73
2022/01/15 04:48:01;;;;;;;16.77;10.43;;;;;;;;;;4953003;28;20273;-72
2022/01/15 04:50:26;;;;;;;14.50;8.70;;;;;;;;;;4957638;28;20194;-73
2022/01/15 04:52:51;;;;;;;10.67;8.60;;;;;;;;;;4946711;28;20190;-73
2022/01/15 04:55:16;;;;;;;12.63;8.00;;;;;;;;;;4946482;28;20266;-72
2022/01/15 04:57:42;;;;;;;12.03;7.93;;;;;;;;;;4955780;28;20181;-72
2022/01/15 05:00:09;;;;;;;10.60;7.40;;;;;;;;;;4945694;28;20213;-72
2022/01/15 05:02:34;;;;;;;10.70;6.70;;;;;;;;;;4953051;28;20182;-73
2022/01/15 05:04:59;;;;;;;11.50;7.93;;;;;;;;;;4957475;28;20205;-72
2022/01/15 05:07:24;;;;;;;12.53;6.77;;;;;;;;;;4951369;28;20222;-73
2022/01/15 05:09:50;;;;;;;9.77;6.53;;;;;;;;;;4955228;28;20192;-73
2022/01/15 05:12:31;;;;;;;9.70;6.30;;;;;;;;;;4949958;28;20219;-73
2022/01/15 05:14:56;;;;;;;8.07;6.20;;;;;;;;;;4961898;28;20185;-73
2022/01/15 05:17:21;;;;;;;7.57;5.83;;;;;;;;;;4953760;28;20184;-73
2022/01/15 05:19:47;;;;;;;8.77;6.10;;;;;;;;;;4959226;28;20326;-73
2022/01/15 05:22:12;;;;;;;8.33;5.73;;;;;;;;;;4954823;28;20177;-72
2022/01/15 05:24:37;;;;;;;13.07;6.70;;;;;;;;;;4951658;28;20284;-72
2022/01/15 05:27:02;;;;;;;9.07;6.43;;;;;;;;;;4945881;28;20177;-73
2022/01/15 05:29:28;;;;;;;12.13;7.30;;;;;;;;;;4964900;28;20209;-72
2022/01/15 05:31:53;;;;;;;10.73;7.37;;;;;;;;;;4944233;28;20185;-73
2022/01/15 05:34:18;;;;;;;11.93;7.53;;;;;;;;;;4948668;28;20253;-72
2022/01/15 05:36:43;;;;;;;12.60;8.30;;;;;;;;;;4948665;28;20200;-72
2022/01/15 05:39:09;;;;;;;11.03;7.63;;;;;;;;;;4946773;28;20210;-72
2022/01/15 05:41:34;;;;;;;12.30;7.00;;;;;;;;;;4939454;28;20189;-73
2022/01/15 05:44:01;;;;;;;12.40;9.73;;;;;;;;;;4951304;28;20186;-72
2022/01/15 05:46:27;;;;;;;10.97;8.47;;;;;;;;;;4941518;29;20213;-72
2022/01/15 05:48:53;;;;;;;14.77;8.37;;;;;;;;;;4959258;28;20186;-72
2022/01/15 05:51:18;;;;;;;13.50;9.67;;;;;;;;;;4945439;28;20178;-72
2022/01/15 05:53:43;;;;;;;14.10;9.10;;;;;;;;;;4947022;28;20204;-73
2022/01/15 05:56:08;;;;;;;10.98;8.85;;;;;;;;;;4952356;28;20187;-73
2022/01/15 05:58:33;;;;;;;12.10;9.13;;;;;;;;;;4952273;28;20189;-73
2022/01/15 06:00:59;;;;;;;13.33;8.83;;;;;;;;;;4966509;28;20197;-72
2022/01/15 06:03:24;;;;;;;12.80;9.17;;;;;;;;;;4948070;28;20190;-73
2022/01/15 06:05:49;;;;;;;31.57;17.53;;;;;;;;;;4951105;28;20241;-72
2022/01/15 06:08:14;;;;;;;13.47;9.57;;;;;;;;;;4951337;28;20185;-72
2022/01/15 06:10:41;;;;;;;15.87;9.27;;;;;;;;;;4948412;28;20260;-72
2022/01/15 06:13:06;;;;;;;15.27;9.83;;;;;;;;;;4947192;28;20286;-72
2022/01/15 06:15:31;;;;;;;14.20;9.60;;;;;;;;;;4944574;28;20209;-72
2022/01/15 06:17:56;;;;;;;13.70;9.93;;;;;;;;;;4978293;28;20280;-73
2022/01/15 06:20:21;;;;;;;14.70;9.37;;;;;;;;;;4944039;28;20236;-72
2022/01/15 06:22:47;;;;;;;15.17;9.40;;;;;;;;;;4947346;28;20182;-73
2022/01/15 06:25:12;;;;;;;14.67;9.50;;;;;;;;;;4951506;28;20201;-72
2022/01/15 06:27:37;;;;;;;12.37;9.23;;;;;;;;;;4944822;28;20182;-73
2022/01/15 06:30:03;;;;;;;12.23;9.30;;;;;;;;;;4943313;28;20209;-73
2022/01/15 06:32:31;;;;;;;14.10;9.70;;;;;;;;;;4954067;28;20186;-73
2022/01/15 06:34:56;;;;;;;12.93;9.40;;;;;;;;;;4943514;28;20197;-73
2022/01/15 06:37:21;;;;;;;12.00;9.17;;;;;;;;;;4948159;28;20271;-73
2022/01/15 06:39:47;;;;;;;13.63;9.30;;;;;;;;;;4943804;28;20187;-73
2022/01/15 06:42:12;;;;;;;14.77;9.60;;;;;;;;;;4939497;28;20213;-73
2022/01/15 06:44:37;;;;;;;15.57;10.20;;;;;;;;;;4945572;28;20217;-73
2022/01/15 06:47:03;;;;;;;11.87;9.87;;;;;;;;;;4950100;28;20185;-72
2022/01/15 06:49:42;;;;;;;15.43;11.83;;;;;;;;;;5122477;27;20541;-74
2022/01/15 06:52:07;;;;;;;15.30;9.87;;;;;;;;;;5108088;28;20193;-74
2022/01/15 06:54:33;;;;;;;12.90;8.60;;;;;;;;;;5133805;27;20423;-74
2022/01/15 06:56:58;;;;;;;13.23;9.40;;;;;;;;;;5118439;28;20179;-74
2022/01/15 06:59:23;;;;;;;12.20;9.13;;;;;;;;;;5104008;28;20244;-73
2022/01/15 07:01:48;;;;;;;13.67;9.10;;;;;;;;;;5108020;28;20487;-74
2022/01/15 07:04:14;;;;;;;14.20;9.30;;;;;;;;;;5136492;27;20200;-73
2022/01/15 07:06:39;;;;;;;11.37;9.07;;;;;;;;;;5101495;28;20181;-74
2022/01/15 07:09:04;;;;;;;14.37;8.50;;;;;;;;;;5125887;27;20207;-74
2022/01/15 07:11:29;;;;;;;11.83;8.70;;;;;;;;;;5103249;27;20178;-74
2022/01/15 07:13:54;;;;;;;12.77;9.10;;;;;;;;;;5121646;28;20173;-74
2022/01/15 07:16:20;;;;;;;10.73;8.70;;;;;;;;;;5098781;28;20258;-74
2022/01/15 07:18:45;;;;;;;12.17;8.30;;;;;;;;;;5100943;27;20184;-74
2022/01/15 07:21:10;;;;;;;10.40;8.00;;;;;;;;;;5098098;28;20184;-74
2022/01/15 07:23:35;;;;;;;10.07;7.57;;;;;;;;;;5121276;28;20183;-74
2022/01/15 07:26:00;;;;;;;9.57;7.47;;;;;;;;;;5108383;28;20184;-74
2022/01/15 07:28:27;;;;;;;8.73;6.20;;;;;;;;;;5121648;27;20191;-74
2022/01/15 07:30:53;;;;;;;10.57;6.60;;;;;;;;;;5123770;27;20172;-73
2022/01/15 07:33:18;;;;;;;7.07;5.47;;;;;;;;;;5115461;28;20207;-74
2022/01/15 07:35:43;;;;;;;9.87;6.70;;;;;;;;;;5123188;27;20176;-74
2022/01/15 07:38:11;;;;;;;10.43;6.70;;;;;;;;;;5123398;27;20179;-73
2022/01/15 07:40:36;;;;;;;11.20;6.87;;;;;;;;;;5125365;27;20202;-74
2022/01/15 07:43:03;;;;;;;7.43;6.27;;;;;;;;;;5121320;28;20429;-74
2022/01/15 07:45:28;;;;;;;9.20;6.77;;;;;;;;;;5123015;27;20242;-74
2022/01/15 07:47:53;;;;;;;11.53;8.07;;;;;;;;;;5117493;27;20314;-74
2022/01/15 07:50:23;;;;;;;9.50;6.40;;;;;;;;;;5120265;27;20184;-74
2022/01/15 07:52:49;;;;;;;8.50;6.30;;;;;;;;;;5114732;27;20262;-74
2022/01/15 07:55:16;;;;;;;8.30;6.60;;;;;;;;;;5115389;27;20171;-74
2022/01/15 07:57:43;;;;;;;10.13;5.87;;;;;;;;;;5126912;27;20191;-74
2022/01/15 08:00:09;;;;;;;12.90;11.27;;;;;;;;;;5114201;27;20184;-74
2022/01/15 08:02:34;;;;;;;8.77;6.60;;;;;;;;;;5110020;28;20178;-74
2022/01/15 08:04:59;;;;;;;10.93;6.43;;;;;;;;;;5108734;28;20176;-74
2022/01/15 08:07:25;;;;;;;9.70;7.17;;;;;;;;;;5100008;28;20236;-74
2022/01/15 08:09:50;;;;;;;7.17;5.43;;;;;;;;;;5104934;28;20201;-74
2022/01/15 08:12:19;;;;;;;9.30;5.77;;;;;;;;;;5105705;28;20179;-74
2022/01/15 08:14:44;;;;;;;9.63;5.77;;;;;;;;;;5109496;28;20166;-74
2022/01/15 08:17:09;;;;;;;7.73;5.03;;;;;;;;;;5101545;28;20191;-74
2022/01/15 08:19:34;;;;;;;6.13;4.87;;;;;;;;;;5107022;27;20184;-74
2022/01/15 08:22:00;;;;;;;5.33;4.13;;;;;;;;;;5104228;28;20183;-74
2022/01/15 08:24:25;;;;;;;4.53;3.40;;;;;;;;;;5107357;28;20172;-74
2022/01/15 08:26:52;;;;;;;5.57;4.70;;;;;;;;;;5103801;28;20203;-74
2022/01/15 08:29:17;;;;;;;10.70;9.23;;;;;;;;;;5098932;27;20207;-74
2022/01/15 08:31:42;;;;;;;441.07;397.67;;;;;;;;;;5100516;28;20180;-74
2022/01/15 08:34:07;;;;;;;11.77;7.53;;;;;;;;;;5110012;27;20269;-74
2022/01/15 08:36:36;;;;;;;6.43;4.73;;;;;;;;;;5108056;27;20254;-74
2022/01/15 08:39:02;;;;;;;5.70;4.03;;;;;;;;;;5111225;27;20184;-74
2022/01/15 08:41:28;;;;;;;4.97;3.53;;;;;;;;;;5103624;27;20179;-75
2022/01/15 08:43:53;;;;;;;5.97;4.07;;;;;;;;;;5103695;28;20172;-74
2022/01/15 08:46:19;;;;;;;6.47;4.40;;;;;;;;;;5097904;27;20249;-74
2022/01/15 08:48:45;;;;;;;5.73;4.93;;;;;;;;;;5100793;28;20227;-74
2022/01/15 08:51:10;;;;;;;5.60;3.57;;;;;;;;;;5101234;28;20176;-74
2022/01/15 08:53:35;;;;;;;5.67;3.47;;;;;;;;;;5108534;28;20199;-74
2022/01/15 08:56:00;;;;;;;4.83;2.80;;;;;;;;;;5102406;28;20206;-74
2022/01/15 08:58:27;;;;;;;4.37;3.20;;;;;;;;;;5109731;27;20443;-74
2022/01/15 09:00:54;;;;;;;4.17;2.70;;;;;;;;;;5104040;28;20219;-74
2022/01/15 09:03:20;;;;;;;4.17;2.53;;;;;;;;;;5106113;28;20207;-74
2022/01/15 09:05:45;;;;;;;2.80;2.57;;;;;;;;;;5104379;27;20210;-74
2022/01/15 09:08:10;;;;;;;4.13;2.93;;;;;;;;;;5107240;28;20583;-74
2022/01/15 09:10:41;;;;;;;4.27;2.57;;;;;;;;;;5105654;28;20178;-74
2022/01/15 09:13:06;;;;;;;4.23;3.17;;;;;;;;;;5101994;28;20712;-74
2022/01/15 09:15:32;;;;;;;5.30;3.70;;;;;;;;;;5095585;28;20196;-74
2022/01/15 09:17:57;;;;;;;4.10;2.80;;;;;;;;;;5110792;27;20191;-74
2022/01/15 09:20:22;;;;;;;5.03;3.00;;;;;;;;;;5095013;28;20181;-74
2022/01/15 09:22:47;;;;;;;3.00;2.50;;;;;;;;;;5097675;28;20184;-74
2022/01/15 09:25:13;;;;;;;3.20;2.00;;;;;;;;;;5105831;28;20245;-74
2022/01/15 09:30:21;;;;;;;3.17;2.47;;;;;;;;;;5102380;28;20238;-80
2022/01/15 09:32:48;;;;;;;3.07;2.30;;;;;;;;;;5099335;27;21245;-80
2022/01/15 09:35:14;;;;;;;3.13;2.67;;;;;;;;;;5100289;28;20168;-80
2022/01/15 09:37:40;;;;;;;3.17;2.03;;;;;;;;;;5097647;28;20324;-80
2022/01/15 09:40:06;;;;;;;5.50;2.63;;;;;;;;;;5101180;28;20184;-80
2022/01/15 09:42:32;;;;;;;4.90;2.30;;;;;;;;;;5111460;27;20287;-80
2022/01/15 09:44:58;;;;;;;3.53;2.43;;;;;;;;;;5101304;27;20244;-80
2022/01/15 09:47:23;;;;;;;3.50;2.40;;;;;;;;;;5103955;28;20270;-80
2022/01/15 09:49:50;;;;;;;2.80;1.80;;;;;;;;;;5094804;28;20196;-80
2022/01/15 09:52:15;;;;;;;2.97;2.13;;;;;;;;;;5097942;28;20179;-80
2022/01/15 09:54:41;;;;;;;2.30;1.90;;;;;;;;;;5105197;27;20181;-80
2022/01/15 09:57:06;;;;;;;3.53;2.77;;;;;;;;;;5100765;28;20172;-80
2022/01/15 09:59:31;;;;;;;2.60;1.93;;;;;;;;;;5099025;28;20191;-80
2022/01/15 10:02:02;;;;;;;3.07;2.00;;;;;;;;;;5095789;28;20188;-80
2022/01/15 10:04:29;;;;;;;2.70;1.90;;;;;;;;;;5096473;28;20271;-80
2022/01/15 10:07:10;;;;;;;2.93;1.90;;;;;;;;;;5093932;28;20177;-81
2022/01/15 10:09:35;;;;;;;3.23;2.53;;;;;;;;;;5103940;28;20196;-80
2022/01/15 10:12:00;;;;;;;4.07;2.90;;;;;;;;;;5097942;28;20176;-80
2022/01/15 10:14:26;;;;;;;3.17;2.30;;;;;;;;;;5099012;28;20175;-80
2022/01/15 10:16:51;;;;;;;4.93;2.80;;;;;;;;;;5094635;28;20184;-80
2022/01/15 10:19:27;;;;;;;4.43;2.87;;;;;;;;;;5097535;28;20216;-80
2022/01/15 10:22:11;;;;;;;8.30;4.43;;;;;;;;;;5105063;28;20180;-80
2022/01/15 10:24:38;;;;;;;4.93;3.27;;;;;;;;;;5103988;28;20184;-80
2022/01/15 10:27:16;;;;;;;3.70;3.17;;;;;;;;;;5102163;28;20214;-80
2022/01/15 10:29:41;;;;;;;4.83;3.97;;;;;;;;;;5100166;28;20200;-80
2022/01/15 10:32:12;;;;;;;3.20;2.73;;;;;;;;;;5101917;28;20237;-80
2022/01/15 10:34:37;;;;;;;4.50;3.47;;;;;;;;;;5100558;28;20199;-80
2022/01/15 10:37:07;;;;;;;3.20;2.90;;;;;;;;;;5098916;28;20176;-81
2022/01/15 10:39:32;;;;;;;5.20;3.20;;;;;;;;;;5100010;28;20285;-80
2022/01/15 10:41:57;;;;;;;6.43;3.60;;;;;;;;;;5096327;28;20176;-80
2022/01/15 10:44:31;;;;;;;4.50;2.83;;;;;;;;;;5100138;28;20306;-79
2022/01/15 10:47:04;;;;;;;5.47;3.13;;;;;;;;;;5096697;28;20191;-78
2022/01/15 10:49:32;;;;;;;4.83;2.80;;;;;;;;;;5109519;28;20227;-78
2022/01/15 10:52:04;;;;;;;3.57;2.73;;;;;;;;;;5102556;28;20191;-78
2022/01/15 10:57:09;;;;;;;3.97;2.03;;;;;;;;;;5024744;28;20246;-78
2022/01/15 10:59:35;;;;;;;4.13;2.43;;;;;;;;;;5028954;28;20174;-78
2022/01/15 11:02:16;;;;;;;4.30;2.17;;;;;;;;;;5027249;28;20240;-78
2022/01/15 11:04:42;;;;;;;3.77;2.30;;;;;;;;;;5014903;28;20194;-78
2022/01/15 11:07:14;;;;;;;3.30;2.87;;;;;;;;;;5019285;28;20178;-78
2022/01/15 11:09:42;;;;;;;5.80;2.60;;;;;;;;;;5031163;28;20268;-77
2022/01/15 11:12:09;;;;;;;4.53;3.20;;;;;;;;;;5022507;28;20181;-78
2022/01/15 11:14:34;;;;;;;3.60;3.00;;;;;;;;;;5028284;28;20178;-78
2022/01/15 11:17:00;;;;;;;5.13;3.30;;;;;;;;;;5029832;28;20280;-78
2022/01/15 11:19:27;;;;;;;4.33;3.23;;;;;;;;;;5027754;28;20182;-78
2022/01/15 11:21:53;;;;;;;4.23;2.90;;;;;;;;;;5022610;28;20209;-77
2022/01/15 11:24:19;;;;;;;4.40;3.40;;;;;;;;;;5027847;28;20299;-79
2022/01/15 11:26:44;;;;;;;9.27;4.17;;;;;;;;;;5027054;28;20182;-74
2022/01/15 11:29:10;;;;;;;3.77;2.90;;;;;;;;;;5020196;28;20261;-74
2022/01/15 11:31:36;;;;;;;4.27;3.30;;;;;;;;;;5026969;28;20233;-74
2022/01/15 11:34:02;;;;;;;6.17;3.20;;;;;;;;;;5041198;28;20291;-74
2022/01/15 11:36:28;;;;;;;5.20;3.27;;;;;;;;;;5047742;28;20167;-74
2022/01/15 11:38:53;;;;;;;17.03;4.23;;;;;;;;;;5049780;28;20236;-73
2022/01/15 11:41:27;;;;;;;4.60;3.03;;;;;;;;;;5050854;28;20182;-73
2022/01/15 11:43:52;;;;;;;5.00;2.80;;;;;;;;;;5044549;28;20188;-73
2022/01/15 11:46:41;;;;;;;7.90;5.35;;;;;;;;;;5047206;28;20178;-73
2022/01/15 11:49:25;;;;;;;3.97;3.57;;;;;;;;;;5058476;28;20211;-73
2022/01/15 11:52:05;;;;;;;4.97;3.37;;;;;;;;;;5044687;28;20259;-73
2022/01/15 11:54:30;;;;;;;5.00;3.67;;;;;;;;;;5051891;28;20265;-74
2022/01/15 11:56:56;;;;;;;5.73;3.67;;;;;;;;;;5051029;28;20396;-73
2022/01/15 11:59:27;;;;;;;13.80;4.03;;;;;;;;;;5048462;28;20307;-73
2022/01/15 12:01:53;;;;;;;4.03;2.93;;;;;;;;;;5047318;28;20268;-73
2022/01/15 12:04:23;;;;;;;5.37;3.33;;;;;;;;;;5046156;28;20190;-73
2022/01/15 12:07:06;;;;;;;6.40;4.00;;;;;;;;;;5047096;28;20247;-73
2022/01/15 12:09:43;;;;;;;4.03;2.87;;;;;;;;;;5049284;28;20272;-73
2022/01/15 12:12:26;;;;;;;6.67;3.33;;;;;;;;;;5046482;28;20182;-73
2022/01/15 12:14:54;;;;;;;4.87;4.03;;;;;;;;;;5050376;28;20182;-73
2022/01/15 12:17:31;;;;;;;4.57;2.93;;;;;;;;;;5043205;28;20185;-73
2022/01/15 12:19:58;;;;;;;5.40;3.50;;;;;;;;;;5049814;28;20174;-73
2022/01/15 12:22:36;;;;;;;6.63;3.57;;;;;;;;;;5048706;28;20197;-73
2022/01/15 12:25:02;;;;;;;6.63;4.10;;;;;;;;;;5048198;28;20277;-73
2022/01/15 12:27:29;;;;;;;5.87;3.30;;;;;;;;;;5051392;28;20206;-73
2022/01/15 12:29:59;;;;;;;5.13;3.53;;;;;;;;;;5050727;28;20280;-73
2022/01/15 12:32:32;;;;;;;6.07;3.97;;;;;;;;;;5050417;28;20194;-73
2022/01/15 12:34:58;;;;;;;7.17;4.73;;;;;;;;;;5050969;28;20231;-73
2022/01/15 12:37:23;;;;;;;5.70;5.03;;;;;;;;;;5049120;28;20193;-73
2022/01/15 12:39:49;;;;;;;7.00;4.50;;;;;;;;;;5043328;28;20170;-73
2022/01/15 12:42:17;;;;;;;5.47;3.97;;;;;;;;;;5048149;28;20232;-73
2022/01/15 12:44:42;;;;;;;5.67;4.17;;;;;;;;;;5050969;28;20182;-73
2022/01/15 12:49:43;;;;;;;5.67;4.50;;;;;;;;;;5029392;28;20238;-73
2022/01/15 12:52:23;;;;;;;8.17;4.80;;;;;;;;;;5010710;28;20198;-73
2022/01/15 12:54:49;;;;;;;5.77;4.43;;;;;;;;;;5011454;28;20201;-73
2022/01/15 12:57:34;;;;;;;5.73;4.57;;;;;;;;;;5026889;28;20237;-73
2022/01/15 13:00:04;;;;;;;6.17;4.57;;;;;;;;;;5006886;28;20187;-74
2022/01/15 13:02:30;;;;;;;6.50;4.97;;;;;;;;;;5012472;28;20195;-73
2022/01/15 13:04:55;;;;;;;5.97;4.47;;;;;;;;;;5012502;28;20270;-73
2022/01/15 13:07:20;;;;;;;5.83;5.10;;;;;;;;;;5014739;28;20240;-73
2022/01/15 13:09:45;;;;;;;5.72;4.65;;;;;;;;;;5012295;28;20221;-73
2022/01/15 13:12:11;;;;;;;7.00;5.57;;;;;;;;;;5012985;28;20213;-73
2022/01/15 13:14:40;;;;;;;8.57;4.60;;;;;;;;;;5010865;28;20262;-74
2022/01/15 13:17:18;;;;;;;7.30;4.63;;;;;;;;;;5005692;28;20183;-74
2022/01/15 13:19:45;;;;;;;5.10;4.40;;;;;;;;;;5024309;28;20190;-74
2022/01/15 13:22:10;;;;;;;8.20;5.00;;;;;;;;;;5022064;28;20222;-74
2022/01/15 13:24:35;;;;;;;7.07;5.33;;;;;;;;;;5011047;28;20273;-73
2022/01/15 13:27:01;;;;;;;6.33;4.57;;;;;;;;;;5009142;28;20223;-74
2022/01/15 13:29:36;;;;;;;6.30;4.50;;;;;;;;;;5008978;28;20270;-74
2022/01/15 13:32:01;;;;;;;6.40;4.60;;;;;;;;;;5028996;28;20176;-73
2022/01/15 13:34:29;;;;;;;5.87;4.73;;;;;;;;;;5014731;28;20202;-74
2022/01/15 13:36:54;;;;;;;5.23;4.37;;;;;;;;;;5011739;28;20171;-73
2022/01/15 13:39:20;;;;;;;6.17;4.77;;;;;;;;;;5013903;28;20187;-74
2022/01/15 13:41:45;;;;;;;6.87;5.30;;;;;;;;;;5016812;28;20218;-74
2022/01/15 13:44:12;;;;;;;8.77;4.83;;;;;;;;;;5009626;28;20180;-74
2022/01/15 13:46:39;;;;;;;7.37;5.77;;;;;;;;;;5013665;28;20185;-74
2022/01/15 13:49:10;;;;;;;5.53;4.33;;;;;;;;;;5000131;28;20223;-73
2022/01/15 13:54:31;;;;;;;7.10;5.17;;;;;;;;;;5001568;28;20250;-74
2022/01/15 13:57:02;;;;;;;7.27;6.07;;;;;;;;;;4992389;28;20203;-74
2022/01/15 13:59:28;;;;;;;6.10;5.20;;;;;;;;;;5014125;28;20183;-74
2022/01/15 14:01:54;;;;;;;7.57;5.20;;;;;;;;;;4994205;28;20216;-74
2022/01/15 14:04:40;;;;;;;8.70;6.07;;;;;;;;;;4996504;28;20195;-74
2022/01/15 14:07:11;;;;;;;6.80;6.10;;;;;;;;;;4987597;28;20269;-73
2022/01/15 14:09:37;;;;;;;10.33;5.73;;;;;;;;;;4991841;28;20295;-74
2022/01/15 14:12:06;;;;;;;7.80;6.13;;;;;;;;;;4990385;28;20273;-74
2022/01/15 14:14:33;;;;;;;7.80;5.93;;;;;;;;;;4991485;28;20189;-74
2022/01/15 14:16:59;;;;;;;11.90;8.13;;;;;;;;;;4993226;28;20197;-73
2022/01/15 14:22:15;;;;;;;10.33;6.50;;;;;;;;;;4981227;28;20195;-74
2022/01/15 14:24:43;;;;;;;8.30;6.47;;;;;;;;;;4989872;28;20227;-74
2022/01/15 14:27:14;;;;;;;8.03;6.33;;;;;;;;;;4994040;28;20275;-74
2022/01/15 14:29:39;;;;;;;9.90;6.80;;;;;;;;;;4986603;28;20238;-74
2022/01/15 14:32:04;;;;;;;10.50;6.97;;;;;;;;;;4996574;28;20237;-73
2022/01/15 14:34:29;;;;;;;9.37;6.93;;;;;;;;;;5009738;28;20192;-74
2022/01/15 14:36:55;;;;;;;8.67;7.43;;;;;;;;;;5011907;28;20187;-73
2022/01/15 14:39:20;;;;;;;9.83;7.23;;;;;;;;;;5010311;28;20183;-74
2022/01/15 14:41:46;;;;;;;8.73;7.23;;;;;;;;;;4994068;28;20236;-74
2022/01/15 14:44:11;;;;;;;10.40;8.10;;;;;;;;;;5008864;28;20220;-74
2022/01/15 14:46:36;;;;;;;12.50;8.20;;;;;;;;;;4991772;28;20267;-74
2022/01/15 14:49:02;;;;;;;9.03;7.77;;;;;;;;;;5008907;28;20228;-73
2022/01/15 14:51:27;;;;;;;10.30;8.70;;;;;;;;;;5012106;28;20179;-73
2022/01/15 14:53:52;;;;;;;9.63;8.63;;;;;;;;;;5014702;28;20710;-74
2022/01/15 14:56:18;;;;;;;11.10;8.63;;;;;;;;;;5029309;28;20176;-74
2022/01/15 14:58:43;;;;;;;12.27;9.37;;;;;;;;;;5028717;28;20184;-74
2022/01/15 15:01:09;;;;;;;11.67;9.57;;;;;;;;;;5029205;28;20180;-74
2022/01/15 15:03:34;;;;;;;14.60;10.60;;;;;;;;;;5010725;28;20193;-74
2022/01/15 15:06:01;;;;;;;16.57;11.43;;;;;;;;;;5012084;28;20203;-74
2022/01/15 15:08:26;;;;;;;14.37;11.67;;;;;;;;;;5014315;28;20197;-73